| Date | Time | Temp. (oF) | Dew Point (oF) | Rel. Hum. (%) | Press. (in.) | Wind Dir. | Wind Speed (mph) | Hourly Rainfall (in.) |
|
|---|---|---|---|---|---|---|---|---|---|
| 1 | 10/22 | 00:00 | 48 | 46 | 94 | 30.34 | SSE | 0 | 0.00 |
| 2 | 10/21 | 23:00 | 50 | 46 | 87 | 30.35 | SSE | 1 | 0.00 |
| 3 | 10/21 | 22:00 | 51 | 45 | 82 | 30.34 | SSE | 0 | 0.00 |
| 4 | 10/21 | 21:00 | 54 | 44 | 71 | 30.34 | SSE | 1 | 0.00 |
| 5 | 10/21 | 20:00 | 58 | 43 | 59 | 30.33 | SSE | 0 | 0.00 |
| 6 | 10/21 | 19:00 | 63 | 40 | 44 | 30.31 | SSE | 1 | 0.00 |
| 7 | 10/21 | 18:00 | 68 | 43 | 42 | 30.30 | S | 1 | 0.00 |
| 8 | 10/21 | 17:00 | 73 | 40 | 31 | 30.29 | SSE | 4 | 0.00 |
| 9 | 10/21 | 16:00 | 75 | 37 | 26 | 30.28 | S | 6 | 0.00 |
| 10 | 10/21 | 15:00 | 77 | 39 | 26 | 30.28 | SE | 1 | 0.00 |
| 11 | 10/21 | 14:00 | 77 | 46 | 34 | 30.30 | SW | 6 | 0.00 |
| 12 | 10/21 | 13:00 | 73 | 47 | 40 | 30.33 | SSW | 2 | 0.00 |
| 13 | 10/21 | 12:00 | 68 | 48 | 49 | 30.34 | NW | 1 | 0.00 |
| 14 | 10/21 | 11:00 | 62 | 48 | 61 | 30.35 | S | 2 | 0.00 |
| 15 | 10/21 | 10:00 | 54 | 47 | 80 | 30.36 | S | 1 | 0.00 |
| 16 | 10/21 | 09:00 | 45 | 45 | 100 | 30.36 | S | 1 | 0.00 |
| 17 | 10/21 | 08:00 | 40 | 40 | 100 | 30.33 | S | 0 | 0.00 |
| 18 | 10/21 | 07:00 | 40 | 40 | 100 | 30.32 | S | 1 | 0.00 |
| 19 | 10/21 | 06:00 | 40 | 40 | 100 | 30.30 | S | 0 | 0.00 |
| 20 | 10/21 | 05:00 | 41 | 41 | 100 | 30.28 | S | 2 | 0.00 |
| 21 | 10/21 | 04:00 | 42 | 41 | 100 | 30.27 | S | 1 | 0.00 |
| 22 | 10/21 | 03:00 | 43 | 42 | 99 | 30.27 | S | 0 | 0.00 |
| 23 | 10/21 | 02:00 | 44 | 43 | 97 | 30.27 | S | 0 | 0.00 |
| 24 | 10/21 | 01:00 | 45 | 43 | 96 | 30.25 | S | 1 | 0.00 |